Rutherford, California
Current Conditions -  °F | °C
As of 10:35 AM on Saturday 25 Oct 2014 (Local Time) from KO69 Reporting Station
Scattered Clouds Scattered Clouds  
Wind Chill: 66°   Ceiling: Unl
Heat Index: 66°   Visibility: 8mi
Dew Point: 57°   Wind: 10mph
Humidity: 73%   Direction: 240°WSW
Pressure: 30.04"   Gusts: NA
Location:  38.46°N, 122.42°W
Report Text: KO69 251735Z AUTO 24009KT 200V280 8SM FEW027 SCT043 19/14 A3004 RMK AO1
Loading
Personal Weather Stations






























Interactive Weather Map
Tropical Storm Tracking
New forecast layout! Learn more

10-Day Weather Forecast

Advertisements
Track Severe Weather on mobile